Time;durP1;ratioP1;P1;durP2;ratioP2;P2;SDS_P1;SDS_P2;PMS_P1;PMS_P2;Temp;Humidity;BMP_temperature;BMP_pressure;BME280_temperature;BME280_humidity;BME280_pressure;Samples;Min_cycle;Max_cycle;Signal;HPM_P1;HPM_P2
2023/12/08 00:00:23;;;;;;;12.33;10.43;;;4.00;99.90;;;;;;953255;146;27279;-85
2023/12/08 00:02:50;;;;;;;13.90;11.40;;;4.10;99.90;;;;;;953324;146;27388;-84
2023/12/08 00:05:16;;;;;;;12.03;10.80;;;4.10;99.90;;;;;;957521;146;27399;-84
2023/12/08 00:07:43;;;;;;;14.23;11.10;;;4.20;99.90;;;;;;954473;146;27355;-84
2023/12/08 00:10:09;;;;;;;12.83;10.83;;;4.20;99.90;;;;;;954783;146;28359;-85
2023/12/08 00:12:36;;;;;;;13.43;10.93;;;4.30;99.90;;;;;;954556;146;27377;-84
2023/12/08 00:15:02;;;;;;;11.77;10.17;;;4.30;99.90;;;;;;954238;146;27303;-84
2023/12/08 00:17:29;;;;;;;13.60;10.93;;;4.30;99.90;;;;;;953798;146;27400;-83
2023/12/08 00:19:56;;;;;;;12.60;10.80;;;4.40;99.90;;;;;;953788;146;27438;-84
2023/12/08 00:22:22;;;;;;;12.60;10.50;;;4.40;99.90;;;;;;954690;146;27309;-84
2023/12/08 00:24:49;;;;;;;14.90;11.60;;;4.50;99.90;;;;;;955029;146;27940;-85
2023/12/08 00:27:15;;;;;;;12.90;11.03;;;4.50;99.90;;;;;;953460;146;27373;-84
2023/12/08 00:29:42;;;;;;;11.87;10.53;;;4.50;99.90;;;;;;955099;146;27398;-85
2023/12/08 00:32:09;;;;;;;12.40;10.97;;;4.60;99.90;;;;;;952619;146;27330;-84
2023/12/08 00:34:35;;;;;;;13.53;10.73;;;4.60;99.90;;;;;;953850;146;27296;-84
2023/12/08 00:37:02;;;;;;;12.00;10.80;;;4.60;99.90;;;;;;955423;146;27276;-85
2023/12/08 00:39:28;;;;;;;14.40;11.03;;;4.70;99.90;;;;;;955517;146;27346;-83
2023/12/08 00:41:55;;;;;;;12.50;11.10;;;4.70;99.90;;;;;;955473;146;27464;-84
2023/12/08 00:44:21;;;;;;;11.93;10.67;;;4.70;99.90;;;;;;954270;146;27296;-85
2023/12/08 00:46:48;;;;;;;11.40;10.13;;;4.80;99.90;;;;;;955457;146;27930;-88
2023/12/08 00:49:15;;;;;;;11.50;10.27;;;4.80;99.90;;;;;;955259;146;27353;-88
2023/12/08 00:51:41;;;;;;;12.90;10.00;;;4.80;99.90;;;;;;953980;146;27935;-83
2023/12/08 00:54:08;;;;;;;11.93;10.73;;;4.90;99.90;;;;;;953180;146;27359;-85
2023/12/08 00:56:34;;;;;;;13.83;11.23;;;4.90;99.90;;;;;;955465;146;27272;-89
2023/12/08 00:59:01;;;;;;;14.07;11.60;;;4.90;99.90;;;;;;953270;146;27292;-88
2023/12/08 01:01:28;;;;;;;12.50;10.63;;;4.90;99.90;;;;;;953705;146;27306;-85
2023/12/08 01:03:54;;;;;;;12.40;10.67;;;5.00;99.90;;;;;;952143;146;27339;-89
2023/12/08 01:06:21;;;;;;;12.00;10.70;;;5.00;99.90;;;;;;948019;148;27310;-89
2023/12/08 01:08:47;;;;;;;13.97;11.53;;;5.00;99.90;;;;;;951663;148;27276;-89
2023/12/08 01:11:14;;;;;;;12.63;11.30;;;5.00;99.90;;;;;;951732;148;27387;-84
2023/12/08 01:13:41;;;;;;;11.90;10.63;;;5.00;99.90;;;;;;952792;148;27433;-86
2023/12/08 01:16:07;;;;;;;12.40;11.10;;;5.10;99.90;;;;;;953409;148;27281;-86
2023/12/08 01:18:34;;;;;;;12.63;11.33;;;5.10;99.90;;;;;;951976;148;27332;-86
2023/12/08 01:21:00;;;;;;;13.27;10.67;;;5.10;99.90;;;;;;945269;148;27287;-85
2023/12/08 01:23:27;;;;;;;12.30;11.03;;;5.10;99.90;;;;;;946601;148;27396;-81
2023/12/08 01:25:54;;;;;;;12.07;10.00;;;5.10;99.90;;;;;;949018;147;27501;-86
2023/12/08 01:28:20;;;;;;;13.13;9.93;;;5.10;99.90;;;;;;951310;147;27717;-86
2023/12/08 01:30:47;;;;;;;11.87;10.07;;;5.10;99.90;;;;;;952908;147;27283;-87
2023/12/08 01:33:13;;;;;;;13.20;10.77;;;5.10;99.90;;;;;;952005;147;27400;-84
2023/12/08 01:35:40;;;;;;;12.77;10.73;;;5.10;99.90;;;;;;950814;147;27347;-81
2023/12/08 01:38:06;;;;;;;13.10;11.17;;;5.10;99.90;;;;;;950806;147;27363;-77
2023/12/08 01:40:33;;;;;;;14.43;10.17;;;5.10;99.90;;;;;;952615;147;27381;-77
2023/12/08 01:43:00;;;;;;;12.47;10.70;;;5.10;99.90;;;;;;950248;147;27356;-77
2023/12/08 01:45:26;;;;;;;14.90;11.03;;;5.10;99.90;;;;;;952306;147;28258;-77
2023/12/08 01:47:53;;;;;;;12.73;11.00;;;5.10;99.90;;;;;;951926;147;27278;-78
2023/12/08 01:50:19;;;;;;;12.07;10.03;;;5.10;99.90;;;;;;949580;147;27352;-77
2023/12/08 01:52:46;;;;;;;12.57;10.37;;;5.10;99.90;;;;;;949292;147;27315;-80
2023/12/08 01:55:13;;;;;;;12.50;10.07;;;5.10;99.90;;;;;;950178;147;27371;-77
2023/12/08 01:57:40;;;;;;;10.30;9.10;;;5.10;99.90;;;;;;949447;148;27407;-77
2023/12/08 02:00:06;;;;;;;11.00;9.50;;;5.10;99.90;;;;;;949314;147;27405;-77
2023/12/08 02:02:33;;;;;;;12.83;11.33;;;5.10;99.90;;;;;;948139;146;27441;-77
2023/12/08 02:04:59;;;;;;;12.20;10.27;;;5.10;99.90;;;;;;949194;147;27425;-80
2023/12/08 02:07:26;;;;;;;12.43;10.63;;;5.10;99.90;;;;;;948886;146;27355;-77
2023/12/08 02:09:52;;;;;;;11.53;10.03;;;5.10;99.90;;;;;;949193;146;27309;-77
2023/12/08 02:12:19;;;;;;;11.00;9.87;;;5.10;99.90;;;;;;950241;147;27266;-78
2023/12/08 02:14:45;;;;;;;12.57;10.57;;;5.10;99.90;;;;;;948215;147;27397;-78
2023/12/08 02:17:12;;;;;;;11.47;10.07;;;5.00;99.90;;;;;;947976;147;27826;-77
2023/12/08 02:19:39;;;;;;;12.80;10.40;;;5.00;99.90;;;;;;950974;146;27289;-77
2023/12/08 02:22:05;;;;;;;12.27;10.47;;;5.00;99.90;;;;;;951478;147;27386;-77
2023/12/08 02:24:32;;;;;;;11.17;9.97;;;5.00;99.90;;;;;;950311;147;27416;-77
2023/12/08 02:26:58;;;;;;;12.43;10.77;;;5.00;99.90;;;;;;947554;147;27336;-80
2023/12/08 02:29:25;;;;;;;12.03;10.83;;;5.10;99.90;;;;;;949224;147;27352;-77
2023/12/08 02:32:25;;;;;;;12.37;10.47;;;5.00;99.90;;;;;;950151;147;27281;-77
2023/12/08 02:34:49;;;;;;;12.37;11.07;;;5.10;99.90;;;;;;949053;146;27382;-80
2023/12/08 02:37:15;;;;;;;12.20;10.83;;;5.00;99.90;;;;;;953091;147;27385;-80
2023/12/08 02:39:42;;;;;;;12.30;10.77;;;5.00;99.90;;;;;;951407;146;27327;-82
2023/12/08 02:42:08;;;;;;;12.90;11.27;;;5.10;99.90;;;;;;950853;147;27336;-79
2023/12/08 02:44:35;;;;;;;11.27;10.03;;;5.10;99.90;;;;;;949443;146;27295;-80
2023/12/08 02:47:02;;;;;;;13.43;11.07;;;5.10;99.90;;;;;;951635;146;27285;-85
2023/12/08 02:49:28;;;;;;;11.77;10.20;;;5.10;99.90;;;;;;950905;146;27367;-83
2023/12/08 02:51:55;;;;;;;12.30;11.00;;;5.10;99.90;;;;;;950981;147;27324;-84
2023/12/08 02:54:21;;;;;;;13.60;11.23;;;5.10;99.90;;;;;;950730;146;27398;-85
2023/12/08 02:56:48;;;;;;;12.43;11.13;;;5.10;99.90;;;;;;950289;147;27427;-84
2023/12/08 02:59:14;;;;;;;12.73;10.93;;;5.10;99.90;;;;;;947425;146;27452;-83
2023/12/08 03:01:41;;;;;;;12.03;10.60;;;5.10;99.90;;;;;;942900;149;27420;-84
2023/12/08 03:04:08;;;;;;;13.20;10.93;;;5.10;99.90;;;;;;941378;149;27369;-85
2023/12/08 03:06:34;;;;;;;14.00;10.97;;;5.10;99.90;;;;;;938827;148;27381;-84
2023/12/08 03:09:01;;;;;;;12.77;11.40;;;5.20;99.90;;;;;;942605;148;27440;-81
2023/12/08 03:11:27;;;;;;;12.93;11.60;;;5.10;99.90;;;;;;941324;148;27347;-81
2023/12/08 03:13:54;;;;;;;13.33;11.37;;;5.10;99.90;;;;;;939225;148;27288;-81
2023/12/08 03:16:21;;;;;;;12.70;11.33;;;5.10;99.90;;;;;;938269;147;27315;-81
2023/12/08 03:18:47;;;;;;;12.83;11.17;;;5.10;99.90;;;;;;941339;147;27343;-81
2023/12/08 03:21:23;;;;;;;12.00;10.70;;;5.10;99.90;;;;;;938730;149;27442;-81
2023/12/08 03:23:49;;;;;;;12.87;10.87;;;5.10;99.90;;;;;;940103;148;27376;-81
2023/12/08 03:26:16;;;;;;;13.43;10.87;;;5.10;99.90;;;;;;942101;148;27303;-81
2023/12/08 03:28:42;;;;;;;12.13;10.87;;;5.10;99.90;;;;;;941706;148;27388;-82
2023/12/08 03:31:09;;;;;;;12.43;10.10;;;5.10;99.90;;;;;;941953;149;27443;-81
2023/12/08 03:33:36;;;;;;;14.63;11.07;;;5.20;99.90;;;;;;940711;148;27339;-79
2023/12/08 03:36:02;;;;;;;12.47;11.17;;;5.20;99.90;;;;;;940715;148;27277;-80
2023/12/08 03:38:29;;;;;;;12.43;10.57;;;5.20;99.90;;;;;;938269;148;27291;-81
2023/12/08 03:40:55;;;;;;;13.57;11.60;;;5.20;99.90;;;;;;940196;148;27346;-79
2023/12/08 03:43:22;;;;;;;13.03;11.53;;;5.20;99.90;;;;;;939643;146;27385;-79
2023/12/08 03:45:49;;;;;;;12.50;10.47;;;5.20;99.90;;;;;;938424;149;27329;-80
2023/12/08 03:48:15;;;;;;;13.83;10.33;;;5.20;99.90;;;;;;938602;149;27345;-80
2023/12/08 03:50:42;;;;;;;12.03;10.43;;;5.20;99.90;;;;;;941718;148;27357;-80
2023/12/08 03:53:08;;;;;;;11.60;10.17;;;5.20;99.90;;;;;;944626;148;27339;-80
2023/12/08 03:55:35;;;;;;;11.23;10.03;;;5.20;99.90;;;;;;939495;146;28283;-80
2023/12/08 03:58:02;;;;;;;12.70;10.97;;;5.20;99.90;;;;;;943921;146;27368;-87
2023/12/08 04:00:28;;;;;;;12.50;10.63;;;5.30;99.90;;;;;;950607;146;27465;-86
2023/12/08 04:02:55;;;;;;;11.80;10.60;;;5.30;99.90;;;;;;948498;147;27364;-83
2023/12/08 04:05:21;;;;;;;12.77;10.47;;;5.30;99.90;;;;;;952603;147;27895;-87
2023/12/08 04:07:48;;;;;;;14.17;10.33;;;5.30;99.90;;;;;;953947;147;27589;-88
2023/12/08 04:10:14;;;;;;;13.37;10.83;;;5.30;99.90;;;;;;951884;147;27329;-87
2023/12/08 04:12:41;;;;;;;12.37;10.47;;;5.30;99.90;;;;;;949969;146;27349;-86
2023/12/08 04:15:08;;;;;;;11.53;10.33;;;5.30;99.90;;;;;;949228;147;27339;-84
2023/12/08 04:17:34;;;;;;;11.30;10.10;;;5.30;99.90;;;;;;948711;147;27352;-80
2023/12/08 04:20:01;;;;;;;18.13;11.30;;;5.30;99.90;;;;;;948865;146;27310;-80
2023/12/08 04:22:27;;;;;;;12.63;10.80;;;5.30;99.90;;;;;;949060;147;27244;-80
2023/12/08 04:24:54;;;;;;;12.40;10.63;;;5.30;99.90;;;;;;949651;146;27371;-80
2023/12/08 04:27:21;;;;;;;14.47;11.30;;;5.30;99.90;;;;;;949177;147;27351;-79
2023/12/08 04:29:47;;;;;;;13.70;11.00;;;5.30;99.90;;;;;;950824;147;27425;-79
2023/12/08 04:32:14;;;;;;;12.33;10.37;;;5.30;99.90;;;;;;950110;146;27300;-80
2023/12/08 04:34:40;;;;;;;12.23;11.00;;;5.30;99.90;;;;;;951547;147;27382;-80
2023/12/08 04:37:07;;;;;;;11.37;10.20;;;5.30;99.90;;;;;;951462;147;27401;-80
2023/12/08 04:39:34;;;;;;;12.57;10.77;;;5.30;99.90;;;;;;950142;146;27491;-80
2023/12/08 04:42:00;;;;;;;13.50;11.70;;;5.30;99.90;;;;;;947921;146;27373;-80
2023/12/08 04:44:27;;;;;;;12.63;11.10;;;5.30;99.90;;;;;;948043;146;27297;-80
2023/12/08 04:46:53;;;;;;;11.83;10.13;;;5.20;99.90;;;;;;951058;146;27351;-80
2023/12/08 04:49:20;;;;;;;17.47;10.60;;;5.20;99.90;;;;;;950623;147;27348;-81
2023/12/08 04:51:47;;;;;;;12.47;10.77;;;5.20;99.90;;;;;;950860;147;27340;-79
2023/12/08 04:54:13;;;;;;;10.90;9.80;;;5.20;99.90;;;;;;951974;147;27301;-79
2023/12/08 04:56:40;;;;;;;11.80;10.23;;;5.20;99.90;;;;;;950414;146;27311;-79
2023/12/08 04:59:06;;;;;;;12.83;11.17;;;5.30;99.90;;;;;;949541;147;27688;-80
2023/12/08 05:01:33;;;;;;;13.00;11.03;;;5.30;99.90;;;;;;950395;147;27399;-79
2023/12/08 05:03:59;;;;;;;11.30;9.87;;;5.30;99.90;;;;;;947506;147;27307;-79
2023/12/08 05:06:26;;;;;;;13.30;11.00;;;5.30;99.90;;;;;;952575;147;27333;-79
2023/12/08 05:08:53;;;;;;;11.20;9.87;;;5.30;99.90;;;;;;951949;147;27296;-79
2023/12/08 05:11:19;;;;;;;11.17;9.87;;;5.30;99.90;;;;;;950792;147;27356;-79
2023/12/08 05:13:46;;;;;;;12.40;10.80;;;5.30;99.90;;;;;;942338;147;27284;-79
2023/12/08 05:16:12;;;;;;;12.63;10.90;;;5.30;99.90;;;;;;953097;147;27311;-79
2023/12/08 05:18:39;;;;;;;12.20;10.83;;;5.30;99.90;;;;;;948280;147;27313;-80
2023/12/08 05:21:06;;;;;;;13.30;11.47;;;5.30;99.90;;;;;;947038;146;27327;-79
2023/12/08 05:23:32;;;;;;;12.07;10.77;;;5.30;99.90;;;;;;943222;146;27444;-79
2023/12/08 05:25:59;;;;;;;11.83;10.57;;;5.30;99.90;;;;;;942851;146;27352;-80
2023/12/08 05:28:25;;;;;;;12.60;10.97;;;5.30;99.90;;;;;;947994;147;27424;-79
2023/12/08 05:30:54;;;;;;;13.27;11.37;;;5.30;99.90;;;;;;948041;147;27337;-79
2023/12/08 05:33:21;;;;;;;13.13;10.73;;;5.20;99.90;;;;;;944553;146;27389;-79
2023/12/08 05:35:48;;;;;;;13.70;11.07;;;5.20;99.90;;;;;;953345;147;27365;-81
2023/12/08 05:38:14;;;;;;;12.33;11.03;;;5.20;99.90;;;;;;948457;147;27361;-79
2023/12/08 05:40:41;;;;;;;13.27;11.23;;;5.20;99.90;;;;;;948937;147;27374;-79
2023/12/08 05:43:07;;;;;;;13.20;10.50;;;5.20;99.90;;;;;;944103;146;27371;-79
2023/12/08 05:45:34;;;;;;;13.87;11.00;;;5.20;99.90;;;;;;948211;147;27334;-80
2023/12/08 05:48:01;;;;;;;15.80;12.83;;;5.10;99.90;;;;;;951055;147;27459;-80
2023/12/08 05:50:27;;;;;;;13.90;11.53;;;5.10;99.90;;;;;;947288;147;27338;-79
2023/12/08 05:52:54;;;;;;;14.13;11.73;;;5.00;99.90;;;;;;948517;147;27332;-79
2023/12/08 05:55:20;;;;;;;13.80;12.03;;;5.00;99.90;;;;;;948793;147;27369;-79
2023/12/08 05:57:47;;;;;;;14.77;11.30;;;4.90;99.90;;;;;;944713;147;27308;-81
2023/12/08 06:00:17;;;;;;;14.63;11.53;;;4.90;99.90;;;;;;949422;147;27365;-79
2023/12/08 06:02:40;;;;;;;14.53;11.90;;;4.80;99.90;;;;;;941141;147;27340;-79
2023/12/08 06:05:07;;;;;;;14.90;11.97;;;4.80;99.90;;;;;;940501;147;27273;-80
2023/12/08 06:07:33;;;;;;;16.07;12.00;;;4.80;99.90;;;;;;938551;148;27413;-80
2023/12/08 06:10:00;;;;;;;15.97;12.13;;;4.70;99.90;;;;;;941211;148;27344;-81
2023/12/08 06:12:26;;;;;;;14.23;11.47;;;4.70;99.90;;;;;;939261;149;27365;-80
2023/12/08 06:14:54;;;;;;;15.10;12.50;;;4.60;99.90;;;;;;941240;148;27600;-79
2023/12/08 06:17:20;;;;;;;15.93;13.73;;;4.60;99.90;;;;;;939211;147;27327;-80
2023/12/08 06:19:46;;;;;;;14.30;11.83;;;4.50;99.90;;;;;;940044;148;27427;-85
2023/12/08 06:22:13;;;;;;;15.03;12.13;;;4.50;99.90;;;;;;937646;150;27353;-87
2023/12/08 06:24:39;;;;;;;16.77;12.10;;;4.50;99.90;;;;;;939823;149;27490;-85
2023/12/08 06:27:06;;;;;;;17.23;13.13;;;4.50;99.90;;;;;;941799;148;27275;-86
2023/12/08 06:29:33;;;;;;;15.67;13.33;;;4.40;99.90;;;;;;942950;148;27268;-86
2023/12/08 06:31:59;;;;;;;15.80;13.57;;;4.40;99.90;;;;;;942099;149;27358;-82
2023/12/08 06:34:26;;;;;;;15.73;13.37;;;4.40;99.90;;;;;;939854;147;27462;-87
2023/12/08 06:36:52;;;;;;;18.50;12.73;;;4.40;99.90;;;;;;939271;148;27257;-86
2023/12/08 06:39:19;;;;;;;17.63;13.20;;;4.40;99.90;;;;;;943624;148;27320;-82
2023/12/08 06:41:45;;;;;;;16.30;12.63;;;4.40;99.90;;;;;;940751;149;27320;-82
2023/12/08 06:44:12;;;;;;;16.80;13.00;;;4.30;99.90;;;;;;937694;150;27369;-83
2023/12/08 06:46:39;;;;;;;16.10;12.90;;;4.30;99.90;;;;;;943476;148;27268;-82
2023/12/08 06:49:05;;;;;;;16.90;13.73;;;4.30;99.90;;;;;;946722;149;27286;-83
2023/12/08 06:51:32;;;;;;;16.47;12.77;;;4.20;99.90;;;;;;946003;149;27369;-83
2023/12/08 06:53:58;;;;;;;18.80;13.67;;;4.20;99.90;;;;;;946688;149;27338;-83
2023/12/08 06:56:25;;;;;;;15.47;13.07;;;4.20;99.90;;;;;;942368;149;27340;-83
2023/12/08 06:58:52;;;;;;;17.70;13.33;;;4.20;99.90;;;;;;939571;146;27414;-83
2023/12/08 07:01:19;;;;;;;15.27;12.70;;;4.20;99.90;;;;;;941862;148;27285;-83
2023/12/08 07:03:45;;;;;;;16.63;13.10;;;4.10;99.90;;;;;;940782;150;27303;-83
2023/12/08 07:06:11;;;;;;;16.80;14.03;;;4.10;99.90;;;;;;939421;149;27452;-84
2023/12/08 07:08:38;;;;;;;19.07;14.70;;;4.10;99.90;;;;;;939645;149;27425;-83
2023/12/08 07:11:05;;;;;;;17.33;14.10;;;4.10;99.90;;;;;;943632;149;27294;-83
2023/12/08 07:13:31;;;;;;;15.17;13.00;;;4.10;99.90;;;;;;939404;150;27384;-83
2023/12/08 07:15:58;;;;;;;16.30;13.30;;;4.10;99.90;;;;;;936800;149;27344;-83
2023/12/08 07:18:25;;;;;;;17.13;14.00;;;4.10;99.90;;;;;;938943;149;27457;-83
2023/12/08 07:20:53;;;;;;;18.00;13.67;;;4.10;99.90;;;;;;938960;149;27348;-83
2023/12/08 07:23:18;;;;;;;17.30;13.43;;;4.10;99.90;;;;;;941570;149;27289;-83
2023/12/08 07:25:45;;;;;;;16.33;13.23;;;4.10;99.90;;;;;;942863;149;27396;-82
2023/12/08 07:28:12;;;;;;;21.23;14.70;;;4.10;99.90;;;;;;940454;149;27562;-82
2023/12/08 07:30:38;;;;;;;17.77;13.03;;;4.10;99.90;;;;;;940852;150;27292;-82
2023/12/08 07:33:05;;;;;;;18.77;14.73;;;4.10;99.90;;;;;;940913;149;27397;-82
2023/12/08 07:35:31;;;;;;;18.00;13.30;;;4.10;99.90;;;;;;941007;149;27301;-82
2023/12/08 07:37:58;;;;;;;19.83;14.20;;;4.10;99.90;;;;;;938996;150;27352;-82
2023/12/08 07:40:25;;;;;;;18.37;13.83;;;4.10;99.90;;;;;;942737;149;27339;-82
2023/12/08 07:42:51;;;;;;;16.20;12.73;;;4.10;99.90;;;;;;939377;150;27381;-81
2023/12/08 07:45:18;;;;;;;17.57;14.10;;;4.20;99.90;;;;;;940328;149;27304;-82
2023/12/08 07:47:44;;;;;;;16.07;13.43;;;4.20;99.90;;;;;;939629;150;27433;-82
2023/12/08 07:50:11;;;;;;;18.60;14.23;;;4.20;99.90;;;;;;942018;150;27363;-85
2023/12/08 07:52:38;;;;;;;18.27;13.80;;;4.30;99.90;;;;;;940472;150;27335;-84
2023/12/08 07:55:05;;;;;;;17.77;13.27;;;4.30;99.90;;;;;;939622;149;27279;-84
2023/12/08 07:57:31;;;;;;;16.27;13.43;;;4.30;99.90;;;;;;944545;149;27348;-83
2023/12/08 07:59:58;;;;;;;15.00;12.93;;;4.30;99.90;;;;;;940778;148;27473;-84
2023/12/08 08:02:24;;;;;;;16.97;13.10;;;4.40;99.90;;;;;;939040;150;27439;-84
2023/12/08 08:04:51;;;;;;;17.40;13.43;;;4.40;99.90;;;;;;949273;148;27325;-84
2023/12/08 08:07:17;;;;;;;18.07;14.17;;;4.40;99.90;;;;;;949970;148;27312;-83
2023/12/08 08:09:44;;;;;;;22.77;13.87;;;4.50;99.90;;;;;;945740;147;27427;-83
2023/12/08 08:12:10;;;;;;;17.90;13.30;;;4.50;99.90;;;;;;949937;146;27418;-84
2023/12/08 08:14:38;;;;;;;15.70;12.83;;;4.50;99.90;;;;;;948875;147;27361;-84
2023/12/08 08:17:03;;;;;;;18.40;14.23;;;4.50;99.90;;;;;;945219;147;27339;-84
2023/12/08 08:19:30;;;;;;;18.43;14.03;;;4.50;99.90;;;;;;947775;147;27401;-83
2023/12/08 08:21:57;;;;;;;18.50;14.13;;;4.50;99.90;;;;;;950190;148;27371;-83
2023/12/08 08:24:23;;;;;;;17.93;13.53;;;4.60;99.90;;;;;;950684;148;27463;-84
2023/12/08 08:26:50;;;;;;;16.67;13.57;;;4.60;99.90;;;;;;942632;148;28002;-84
2023/12/08 08:29:16;;;;;;;16.77;13.43;;;4.60;99.90;;;;;;945869;147;27793;-84
2023/12/08 08:31:43;;;;;;;16.70;13.67;;;4.60;99.90;;;;;;945451;147;27368;-83
2023/12/08 08:34:10;;;;;;;17.17;13.37;;;4.60;99.90;;;;;;941999;147;27333;-83
2023/12/08 08:36:36;;;;;;;17.03;13.43;;;4.60;99.90;;;;;;942973;148;27420;-84
2023/12/08 08:39:03;;;;;;;17.10;13.40;;;4.60;99.90;;;;;;943249;148;27288;-84
2023/12/08 08:41:29;;;;;;;18.27;14.77;;;4.70;99.90;;;;;;948200;148;27413;-82
2023/12/08 08:43:56;;;;;;;19.17;14.40;;;4.70;99.90;;;;;;947797;147;27511;-82
2023/12/08 08:46:22;;;;;;;19.87;14.77;;;4.70;99.90;;;;;;946835;147;27276;-82
2023/12/08 08:48:49;;;;;;;18.87;13.90;;;4.70;99.90;;;;;;949951;148;27300;-82
2023/12/08 08:51:16;;;;;;;17.53;13.93;;;4.70;99.90;;;;;;946602;148;27412;-82
2023/12/08 08:53:42;;;;;;;19.57;14.93;;;4.70;99.90;;;;;;943557;147;28023;-83
2023/12/08 08:56:09;;;;;;;16.37;13.23;;;4.80;99.90;;;;;;948311;148;27315;-82
2023/12/08 08:58:36;;;;;;;18.87;14.07;;;4.80;99.90;;;;;;945333;146;29315;-82
2023/12/08 09:01:02;;;;;;;19.03;14.30;;;4.80;99.90;;;;;;949809;146;27281;-84
2023/12/08 09:03:29;;;;;;;20.17;15.33;;;4.80;99.90;;;;;;946708;147;27473;-83
2023/12/08 09:05:55;;;;;;;19.67;14.20;;;4.80;99.90;;;;;;940759;150;27887;-84
2023/12/08 09:08:22;;;;;;;18.43;14.03;;;4.80;99.90;;;;;;939030;150;27441;-84
2023/12/08 09:10:50;;;;;;;18.90;15.17;;;4.80;99.90;;;;;;939143;149;27278;-84
2023/12/08 09:13:15;;;;;;;20.40;15.27;;;4.80;99.90;;;;;;940304;149;27424;-83
2023/12/08 09:15:43;;;;;;;20.57;14.40;;;4.80;99.90;;;;;;938427;149;27364;-83
2023/12/08 09:18:08;;;;;;;19.73;15.37;;;4.90;99.90;;;;;;940213;150;27363;-83
2023/12/08 09:20:35;;;;;;;18.40;14.57;;;4.90;99.90;;;;;;939201;150;27280;-84
2023/12/08 09:23:01;;;;;;;19.43;14.80;;;4.90;99.90;;;;;;939018;149;27332;-83
2023/12/08 09:25:28;;;;;;;16.90;13.73;;;4.90;99.90;;;;;;942180;149;27911;-85
2023/12/08 09:27:54;;;;;;;18.53;14.77;;;4.90;99.90;;;;;;940447;149;27386;-83
2023/12/08 09:30:21;;;;;;;20.50;15.47;;;4.90;99.90;;;;;;939829;150;27320;-83
2023/12/08 09:32:50;;;;;;;18.93;14.77;;;4.90;99.90;;;;;;938611;149;27691;-83
2023/12/08 09:35:14;;;;;;;15.90;13.83;;;4.90;99.90;;;;;;939206;150;27415;-85
2023/12/08 09:37:41;;;;;;;18.97;14.33;;;5.00;99.90;;;;;;937387;149;27265;-84
2023/12/08 09:40:08;;;;;;;16.77;14.03;;;5.00;99.90;;;;;;940893;149;27390;-85
2023/12/08 09:42:37;;;;;;;19.13;15.13;;;5.00;99.90;;;;;;940988;149;27366;-83
2023/12/08 09:45:09;;;;;;;18.87;14.33;;;5.00;99.90;;;;;;939206;149;27363;-84
2023/12/08 09:47:35;;;;;;;20.13;15.53;;;5.00;99.90;;;;;;940268;149;27444;-84
2023/12/08 09:50:12;;;;;;;19.77;15.47;;;5.00;99.90;;;;;;938485;149;27344;-83
2023/12/08 09:52:38;;;;;;;18.80;14.80;;;5.00;99.90;;;;;;939974;149;27369;-81
2023/12/08 09:55:06;;;;;;;17.60;14.33;;;5.00;99.90;;;;;;938282;149;27396;-80
2023/12/08 09:57:33;;;;;;;19.83;14.47;;;5.00;99.90;;;;;;938280;150;27339;-81
2023/12/08 10:00:05;;;;;;;18.17;14.53;;;5.00;99.90;;;;;;938152;149;27340;-80
2023/12/08 10:02:28;;;;;;;18.73;14.33;;;5.00;99.90;;;;;;939917;149;27435;-80
2023/12/08 10:04:55;;;;;;;18.20;13.97;;;5.10;99.90;;;;;;940690;149;27424;-80
2023/12/08 10:07:21;;;;;;;19.80;14.97;;;5.00;99.90;;;;;;939020;149;27328;-80
2023/12/08 10:09:48;;;;;;;21.00;14.93;;;5.00;99.90;;;;;;942236;149;27416;-80
2023/12/08 10:12:15;;;;;;;18.73;15.03;;;5.10;99.90;;;;;;942435;149;28807;-83
2023/12/08 10:14:56;;;;;;;21.47;15.23;;;5.10;99.90;;;;;;940434;150;27366;-83
2023/12/08 10:17:23;;;;;;;20.33;14.27;;;5.20;99.90;;;;;;940078;149;27292;-83
2023/12/08 10:19:52;;;;;;;18.57;14.33;;;5.10;99.90;;;;;;938275;149;27419;-83
2023/12/08 10:22:16;;;;;;;16.83;14.03;;;5.20;99.90;;;;;;938801;150;27328;-83
2023/12/08 10:24:43;;;;;;;20.03;15.60;;;5.20;99.90;;;;;;937725;149;27328;-84
2023/12/08 10:27:10;;;;;;;18.70;15.03;;;5.20;99.90;;;;;;938320;149;27298;-83
2023/12/08 10:29:36;;;;;;;17.17;14.20;;;5.30;99.90;;;;;;939014;150;27424;-83
2023/12/08 10:32:04;;;;;;;19.17;14.33;;;5.30;99.90;;;;;;940162;150;27395;-83
2023/12/08 10:34:29;;;;;;;17.67;14.17;;;5.30;99.90;;;;;;939395;150;27277;-83
2023/12/08 10:36:56;;;;;;;18.37;14.47;;;5.30;99.90;;;;;;939908;150;27404;-84
2023/12/08 10:39:23;;;;;;;18.17;14.27;;;5.30;99.90;;;;;;939224;150;27281;-83
2023/12/08 10:41:52;;;;;;;18.13;14.77;;;5.30;99.90;;;;;;940507;150;27360;-83
2023/12/08 10:44:19;;;;;;;18.77;15.40;;;5.30;99.90;;;;;;937975;150;27357;-84
2023/12/08 10:46:46;;;;;;;20.17;16.20;;;5.40;99.90;;;;;;940239;149;27330;-83
2023/12/08 10:49:12;;;;;;;23.73;16.67;;;5.40;99.90;;;;;;940142;150;27305;-83
2023/12/08 10:51:38;;;;;;;19.13;14.47;;;5.40;99.90;;;;;;939624;149;27463;-83
2023/12/08 10:54:05;;;;;;;22.13;15.80;;;5.40;99.90;;;;;;937673;149;27301;-83
2023/12/08 10:56:31;;;;;;;19.87;15.43;;;5.40;99.90;;;;;;940808;149;27246;-83
2023/12/08 10:58:58;;;;;;;20.07;15.63;;;5.50;99.90;;;;;;939772;149;27308;-84
2023/12/08 11:01:25;;;;;;;19.73;14.47;;;5.50;99.90;;;;;;939160;150;27441;-82
2023/12/08 11:03:51;;;;;;;16.33;13.83;;;5.50;99.90;;;;;;937605;150;28109;-82
2023/12/08 11:06:19;;;;;;;17.47;14.43;;;5.50;99.90;;;;;;948085;148;27366;-82
2023/12/08 11:08:44;;;;;;;17.00;14.33;;;5.60;99.90;;;;;;950476;148;27281;-82
2023/12/08 11:11:11;;;;;;;16.27;13.80;;;5.60;99.90;;;;;;949291;148;27310;-83
2023/12/08 11:13:40;;;;;;;17.37;13.97;;;5.70;99.90;;;;;;948768;148;27353;-84
2023/12/08 11:16:25;;;;;;;18.03;14.27;;;5.70;99.90;;;;;;949263;148;27308;-84
2023/12/08 11:18:52;;;;;;;17.77;14.53;;;5.80;99.90;;;;;;951947;148;27632;-84
2023/12/08 11:21:18;;;;;;;16.80;13.63;;;5.80;99.90;;;;;;951851;148;27892;-83
2023/12/08 11:23:45;;;;;;;16.33;14.07;;;5.90;99.90;;;;;;949201;148;27442;-83
2023/12/08 11:26:23;;;;;;;18.70;15.00;;;5.90;99.90;;;;;;950915;148;27363;-84
2023/12/08 11:28:59;;;;;;;17.00;14.53;;;6.00;99.90;;;;;;951007;148;27320;-85
2023/12/08 11:31:35;;;;;;;18.53;15.17;;;6.00;99.90;;;;;;952677;148;27402;-84
2023/12/08 11:34:04;;;;;;;16.50;14.60;;;6.10;99.90;;;;;;947097;148;27435;-83
2023/12/08 11:36:30;;;;;;;20.70;16.17;;;6.10;99.90;;;;;;945798;148;27394;-85
2023/12/08 11:38:57;;;;;;;19.63;15.10;;;6.10;99.90;;;;;;947465;148;27419;-84
2023/12/08 11:41:26;;;;;;;19.37;15.33;;;6.20;99.90;;;;;;947687;148;27288;-84
2023/12/08 11:43:50;;;;;;;17.33;14.70;;;6.20;99.90;;;;;;948339;148;27409;-84
2023/12/08 11:46:17;;;;;;;17.43;14.60;;;6.30;99.90;;;;;;950793;147;27333;-83
2023/12/08 11:48:43;;;;;;;18.73;15.97;;;6.30;99.90;;;;;;951035;147;27355;-85
2023/12/08 11:51:10;;;;;;;20.17;15.43;;;6.30;99.90;;;;;;949702;148;27759;-84
2023/12/08 11:53:53;;;;;;;20.20;16.27;;;6.40;99.90;;;;;;949772;148;27293;-84
2023/12/08 11:56:37;;;;;;;18.97;15.33;;;6.40;99.90;;;;;;944786;148;27367;-84
2023/12/08 11:59:03;;;;;;;19.30;15.10;;;6.40;99.90;;;;;;952417;148;27423;-84
2023/12/08 12:01:30;;;;;;;16.70;14.17;;;6.40;99.90;;;;;;954541;148;27289;-82
2023/12/08 12:03:56;;;;;;;19.53;15.40;;;6.50;99.90;;;;;;951212;148;27308;-82
2023/12/08 12:06:23;;;;;;;21.87;15.03;;;6.40;99.90;;;;;;944834;148;27792;-82
2023/12/08 12:08:49;;;;;;;20.53;15.67;;;6.40;99.90;;;;;;940214;148;27365;-82
2023/12/08 12:11:19;;;;;;;20.40;15.90;;;6.50;99.90;;;;;;938791;148;27293;-82
2023/12/08 12:13:45;;;;;;;18.30;14.67;;;6.50;99.90;;;;;;941394;148;27885;-82
2023/12/08 12:16:12;;;;;;;18.80;15.87;;;6.50;99.90;;;;;;941154;146;27374;-82
2023/12/08 12:18:38;;;;;;;19.77;15.40;;;6.50;99.90;;;;;;942980;146;28976;-82
2023/12/08 12:21:05;;;;;;;17.87;14.37;;;6.60;99.90;;;;;;942664;146;27406;-82
2023/12/08 12:23:32;;;;;;;18.43;15.63;;;6.60;99.90;;;;;;941277;146;27241;-82
2023/12/08 12:25:58;;;;;;;18.00;14.53;;;6.60;99.90;;;;;;943898;146;27296;-82
2023/12/08 12:28:25;;;;;;;18.83;14.73;;;6.60;99.90;;;;;;944300;146;27364;-82
2023/12/08 12:30:51;;;;;;;16.73;14.77;;;6.60;99.90;;;;;;942676;146;27350;-82
2023/12/08 12:33:18;;;;;;;19.50;15.00;;;6.60;99.90;;;;;;940711;146;27281;-83
2023/12/08 12:35:45;;;;;;;16.50;14.67;;;6.70;99.90;;;;;;938794;146;27452;-82